Ikermiuarsuk

KL  EN  DA
ASIAQ
Weather Now GREENLAND SURVEY
Updated [WGT/WGST] Temperature [°C] Wind [m/s] Air pressure [hPa] Relative humidity [%] Precipitation [mm]
Present Wind chill Speed Max
25.02 07:00-7,9-19,014,4 ⇓18,0100237n/a
25.02 06:00-8,8-21,217,5 ⇓20,6100141n/a
25.02 05:00-9,3-20,813,9 ⇓18,0100245n/a
25.02 04:00-9,8-22,517,5 ⇓21,1100147n/a
25.02 03:00-8,6-20,114,9 ⇓20,1100039n/a
25.02 02:00-8,9-18,59,3 ⇓13,4100044n/a
25.02 01:00-8,8-12,92,1 ⇓6,7100038n/a
25.02 00:00-8,0-15,05,1 ⇓9,3100034n/a
24.02 23:00-8,40,01,0 ⇓2,699959n/a
24.02 22:00-7,9-13,13,1 ⇓4,699941n/a
24.02 21:00-9,5-15,03,1 ⇓4,199861n/a
24.02 20:00-9,1-12,11,5 ⇖2,199765n/a
24.02 19:00-9,7-13,92,1 ⇓2,699666n/a
24.02 18:00-9,2-14,12,6 ⇓3,199664n/a
24.02 17:00-8,8-13,62,6 ⇓3,699570n/a
24.02 16:00-8,8-14,73,6 ⇓4,699573n/a
24.02 15:00-8,4-14,23,6 ⇓4,699469n/a
24.02 14:00-8,2-14,44,1 ⇓5,799467n/a
24.02 13:00-7,8-15,25,7 ⇓8,299365n/a
24.02 12:00-7,5-15,46,7 ⇓8,899360n/a
24.02 11:00-7,9-15,66,2 ⇓8,299364n/a
24.02 10:00-8,3-16,16,2 ⇓8,899366n/a
24.02 09:00-8,2-16,67,2 ⇓10,399363n/a
24.02 08:00-8,4-16,87,2 ⇓8,899361n/a
24.02 07:00-8,6-17,17,2 ⇓9,399361n/a
Position: (61.9363888888,-42.0677777777)

[Back]